Time;durP1;ratioP1;P1;durP2;ratioP2;P2;SDS_P1;SDS_P2;PMS_P1;PMS_P2;Temp;Humidity;BMP_temperature;BMP_pressure;BME280_temperature;BME280_humidity;BME280_pressure;Samples;Min_cycle;Max_cycle;Signal;HPM_P1;HPM_P2
2022/09/26 00:00:20;;;;;;;42.50;30.70;;;;;;;5.84;75.42;99093.29;213806;1277;142750;-66
2022/09/26 00:05:43;;;;;;;35.80;27.80;;;;;;;5.78;75.35;99084.89;213191;1277;141573;-65
2022/09/26 00:10:56;;;;;;;42.20;29.60;;;;;;;5.65;75.04;99080.31;213709;1276;141058;-68
2022/09/26 00:16:00;;;;;;;44.20;28.80;;;;;;;5.60;75.64;99075.95;214498;1276;142036;-67
2022/09/26 00:21:05;;;;;;;39.60;31.00;;;;;;;5.62;75.88;99063.61;214238;1276;141173;-66
2022/09/26 00:26:10;;;;;;;34.10;25.50;;;;;;;5.61;75.79;99060.78;213550;1276;141878;-66
2022/09/26 00:31:17;;;;;;;36.20;27.40;;;;;;;5.58;76.05;99056.69;213524;1276;142335;-66
2022/09/26 00:36:20;;;;;;;38.30;27.10;;;;;;;5.55;75.79;99057.86;215677;1276;141474;-68
2022/09/26 00:41:38;;;;;;;37.30;27.30;;;;;;;5.47;75.76;99050.85;215348;1276;141479;-67
2022/09/26 00:46:47;;;;;;;36.60;24.80;;;;;;;5.44;75.82;99045.38;214949;1276;140737;-67
2022/09/26 00:52:16;;;;;;;34.50;24.90;;;;;;;5.46;75.90;99050.46;214311;1276;141505;-66
2022/09/26 00:57:31;;;;;;;36.70;28.40;;;;;;;5.50;76.28;99047.52;216017;1276;140736;-67
2022/09/26 01:02:34;;;;;;;49.20;26.60;;;;;;;5.57;76.46;99049.30;215994;1276;141010;-67
2022/09/26 01:07:37;;;;;;;37.20;25.50;;;;;;;5.60;75.95;99052.08;215002;1276;142495;-66
2022/09/26 01:12:43;;;;;;;30.50;26.20;;;;;;;5.59;76.27;99049.85;213325;1276;141898;-66
2022/09/26 01:17:46;;;;;;;37.20;26.20;;;;;;;5.63;76.23;99051.85;214048;1276;143881;-67
2022/09/26 01:23:32;;;;;;;23.80;19.00;;;;;;;5.62;76.24;99046.69;213263;1276;142165;-66
2022/09/26 01:28:38;;;;;;;37.30;26.20;;;;;;;5.41;75.87;99038.25;214543;1276;141488;-67
2022/09/26 01:33:50;;;;;;;36.00;25.10;;;;;;;5.33;76.76;99043.77;214183;1276;140840;-67
2022/09/26 01:39:14;;;;;;;35.20;26.80;;;;;;;5.36;76.78;99032.80;213748;1276;143383;-66
2022/09/26 01:44:59;;;;;;;41.50;27.20;;;;;;;5.47;77.11;99031.73;213175;1276;142193;-66
2022/09/26 01:51:14;;;;;;;38.70;28.10;;;;;;;5.45;77.12;99027.33;213031;1276;142277;-66
2022/09/26 01:56:25;;;;;;;42.90;27.80;;;;;;;5.42;77.27;99025.51;212509;1280;142276;-65
2022/09/26 02:01:32;;;;;;;40.80;24.80;;;;;;;5.41;77.73;99018.45;213398;1280;141718;-66
2022/09/26 02:06:51;;;;;;;47.00;30.00;;;;;;;5.47;77.87;99007.70;213020;1276;142049;-65
2022/09/26 02:11:58;;;;;;;37.40;26.00;;;;;;;5.46;77.74;99007.95;213726;1276;140433;-66
2022/09/26 02:17:14;;;;;;;31.70;26.40;;;;;;;5.49;78.16;99007.55;214268;1276;141850;-66
2022/09/26 02:22:17;;;;;;;35.00;23.50;;;;;;;5.55;77.94;98996.77;213899;1276;140773;-66
2022/09/26 02:27:21;;;;;;;36.00;24.00;;;;;;;5.56;78.39;98995.95;214679;1275;140572;-66
2022/09/26 02:32:29;;;;;;;39.70;26.20;;;;;;;5.60;78.48;98993.06;214769;1276;141400;-67
2022/09/26 02:37:32;;;;;;;37.50;27.00;;;;;;;5.65;78.40;98992.32;214471;1275;141071;-67
2022/09/26 02:42:52;;;;;;;52.60;29.00;;;;;;;5.78;79.22;98990.83;214483;1276;141141;-67
2022/09/26 02:48:13;;;;;;;50.30;30.20;;;;;;;6.01;79.17;98982.85;215849;1276;140751;-69
2022/09/26 02:53:37;;;;;;;52.30;28.20;;;;;;;6.22;79.47;98982.39;215679;1276;143301;-69
2022/09/26 02:58:51;;;;;;;45.50;27.90;;;;;;;6.37;79.46;98982.05;214287;1275;153627;-67
2022/09/26 03:04:07;;;;;;;38.40;25.80;;;;;;;6.51;79.82;98985.52;215059;1276;141940;-67
2022/09/26 03:09:11;;;;;;;45.00;29.00;;;;;;;6.67;80.13;98981.33;213884;1276;141208;-67
2022/09/26 03:14:17;;;;;;;43.60;28.20;;;;;;;6.87;80.01;98972.46;213671;1276;142787;-66
2022/09/26 03:19:59;;;;;;;45.90;27.80;;;;;;;6.96;79.95;98965.05;214645;1276;141275;-66
2022/09/26 03:25:05;;;;;;;42.60;28.90;;;;;;;7.06;80.13;98957.85;212728;1276;142578;-66
2022/09/26 03:30:09;;;;;;;49.60;29.70;;;;;;;7.15;80.61;98954.08;214726;1276;140011;-67
2022/09/26 03:35:14;;;;;;;44.90;26.50;;;;;;;7.18;80.12;98945.98;213337;1276;140485;-66
2022/09/26 03:40:17;;;;;;;39.50;26.90;;;;;;;7.21;80.20;98948.17;214121;1276;140618;-67
2022/09/26 03:45:20;;;;;;;38.30;24.00;;;;;;;7.31;80.11;98942.73;213991;1276;220454;-66
2022/09/26 03:50:24;;;;;;;37.30;27.10;;;;;;;7.45;80.73;98935.42;214115;1276;141267;-66
2022/09/26 03:55:27;;;;;;;38.00;26.30;;;;;;;7.63;81.12;98935.48;213628;1276;160029;-67
2022/09/26 04:00:30;;;;;;;38.80;27.30;;;;;;;7.73;80.98;98934.02;213603;1276;141187;-66
2022/09/26 04:05:34;;;;;;;32.20;24.50;;;;;;;7.80;80.88;98929.34;213111;1276;141922;-66
2022/09/26 04:10:38;;;;;;;32.70;26.50;;;;;;;7.93;81.31;98928.89;213146;1276;142071;-66
2022/09/26 04:15:40;;;;;;;33.30;23.10;;;;;;;8.03;81.34;98919.89;214071;1276;141931;-66
2022/09/26 04:20:43;;;;;;;29.00;22.90;;;;;;;8.16;81.37;98919.49;214203;1276;141253;-68
2022/09/26 04:25:47;;;;;;;37.90;27.10;;;;;;;8.30;81.54;98920.48;213984;1276;141493;-67
2022/09/26 04:30:49;;;;;;;35.70;26.20;;;;;;;8.44;81.90;98913.58;214178;1276;140905;-67
2022/09/26 04:35:51;;;;;;;35.80;25.10;;;;;;;8.51;81.24;98909.65;215258;1276;141464;-67
2022/09/26 04:40:54;;;;;;;32.50;25.60;;;;;;;8.53;81.43;98911.59;214466;1276;140857;-67
2022/09/26 04:45:56;;;;;;;36.50;23.40;;;;;;;8.67;81.70;98912.88;215078;1275;142380;-67
2022/09/26 04:51:04;;;;;;;36.10;25.90;;;;;;;8.83;81.45;98910.84;213626;1276;140510;-67
2022/09/26 04:56:08;;;;;;;34.00;26.10;;;;;;;8.88;81.36;98911.11;215599;1275;141769;-68
2022/09/26 05:01:13;;;;;;;39.50;24.60;;;;;;;8.85;81.28;98910.56;215856;1275;140454;-70
2022/09/26 05:06:17;;;;;;;34.80;25.90;;;;;;;8.88;81.47;98910.25;215727;1276;140961;-66
2022/09/26 05:11:20;;;;;;;35.10;26.50;;;;;;;8.93;81.38;98906.20;215525;1276;141108;-67
2022/09/26 05:16:22;;;;;;;32.60;23.50;;;;;;;9.00;81.25;98903.36;214806;1275;141363;-66
2022/09/26 05:21:28;;;;;;;34.00;24.80;;;;;;;8.98;81.41;98902.44;214428;1276;143076;-65
2022/09/26 05:26:40;;;;;;;33.10;26.30;;;;;;;8.99;81.60;98898.08;214368;1275;140644;-68
2022/09/26 05:31:43;;;;;;;31.60;23.90;;;;;;;9.10;81.95;98898.99;213594;1276;141937;-69
2022/09/26 05:36:46;;;;;;;34.80;26.00;;;;;;;9.16;81.67;98891.20;214394;1276;143788;-69
2022/09/26 05:41:52;;;;;;;40.80;27.00;;;;;;;9.16;81.90;98889.81;213168;1276;142476;-67
2022/09/26 05:46:55;;;;;;;31.80;22.10;;;;;;;9.17;82.08;98885.26;213132;1275;142579;-66
2022/09/26 05:51:58;;;;;;;38.10;26.60;;;;;;;9.21;82.04;98888.02;214012;1276;140595;-70
2022/09/26 05:57:00;;;;;;;35.20;23.40;;;;;;;9.26;82.15;98886.64;212736;1276;142716;-68
2022/09/26 06:02:05;;;;;;;30.90;22.40;;;;;;;9.27;82.14;98885.42;212857;1276;161283;-68
2022/09/26 06:07:09;;;;;;;36.50;27.40;;;;;;;9.26;82.43;98884.56;214120;1276;152684;-68
2022/09/26 06:12:12;;;;;;;40.60;29.20;;;;;;;9.32;82.45;98881.52;213159;1276;141191;-67
2022/09/26 06:17:15;;;;;;;35.20;27.50;;;;;;;9.49;82.93;98884.05;213551;1276;141582;-67
2022/09/26 06:22:18;;;;;;;38.50;29.00;;;;;;;9.64;82.59;98888.23;214253;1276;143828;-67
2022/09/26 06:27:22;;;;;;;38.00;28.50;;;;;;;9.79;82.52;98886.73;212880;1276;141708;-67
2022/09/26 06:32:28;;;;;;;26.00;22.40;;;;;;;9.95;82.69;98891.54;213033;1276;142644;-67
2022/09/26 06:37:31;;;;;;;32.40;23.90;;;;;;;10.09;82.42;98897.10;214482;1276;140751;-68
2022/09/26 06:42:36;;;;;;;25.80;21.50;;;;;;;10.25;82.46;98892.27;213102;1276;164510;-66
2022/09/26 06:47:39;;;;;;;32.60;21.70;;;;;;;10.42;82.59;98889.38;214453;1276;142618;-67
2022/09/26 06:52:42;;;;;;;38.30;27.30;;;;;;;10.62;82.58;98890.92;213987;1276;142031;-69
2022/09/26 06:57:46;;;;;;;40.40;30.10;;;;;;;10.99;82.82;98888.77;214875;1276;143502;-68
2022/09/26 07:02:54;;;;;;;34.30;26.80;;;;;;;11.54;82.86;98889.67;215859;1275;141129;-68
2022/09/26 07:07:57;;;;;;;25.30;21.40;;;;;;;12.27;82.73;98884.36;215745;1276;141343;-67
2022/09/26 07:13:03;;;;;;;33.60;25.10;;;;;;;13.43;82.14;98884.09;215301;1275;141629;-68
2022/09/26 07:18:06;;;;;;;32.00;24.60;;;;;;;14.67;81.30;98889.31;215369;1276;141235;-68
2022/09/26 07:23:10;;;;;;;30.30;23.30;;;;;;;15.70;79.59;98889.80;214805;1276;141126;-68
2022/09/26 07:28:12;;;;;;;30.40;22.30;;;;;;;16.43;78.68;98892.67;213389;1276;140827;-68
2022/09/26 07:33:16;;;;;;;31.30;24.90;;;;;;;16.92;77.27;98886.50;214233;1276;140958;-67
2022/09/26 07:38:19;;;;;;;28.80;23.70;;;;;;;17.10;75.55;98884.40;213422;1276;141584;-67
2022/09/26 07:43:22;;;;;;;23.50;20.20;;;;;;;17.26;75.35;98879.45;214093;1276;140452;-67
2022/09/26 07:54:11;;;;;;;25.00;22.30;;;;;;;17.73;73.30;98875.83;213843;1276;141604;-67
2022/09/26 07:59:15;;;;;;;25.10;21.20;;;;;;;17.98;73.02;98874.10;213238;1276;140845;-68
2022/09/26 08:04:18;;;;;;;25.00;21.80;;;;;;;18.16;72.41;98869.05;213927;1276;141023;-67
2022/09/26 08:09:20;;;;;;;25.90;22.40;;;;;;;18.27;71.97;98866.54;214276;1275;140947;-68
2022/09/26 08:14:23;;;;;;;28.40;23.10;;;;;;;18.17;71.58;98868.26;214539;1276;210611;-70
2022/09/26 08:19:27;;;;;;;26.00;23.30;;;;;;;17.89;70.56;98866.70;213317;1275;140084;-70
2022/09/26 08:24:30;;;;;;;25.70;22.80;;;;;;;17.57;69.91;98862.95;213985;1275;141997;-70
2022/09/26 08:29:33;;;;;;;33.40;23.80;;;;;;;17.39;70.08;98856.98;214343;1275;141142;-70
2022/09/26 08:34:37;;;;;;;29.70;24.00;;;;;;;17.57;70.48;98851.67;213993;1275;141038;-69
2022/09/26 08:39:41;;;;;;;27.80;23.10;;;;;;;17.82;70.33;98847.18;214624;1275;142738;-70
2022/09/26 08:46:27;;;;;;;26.60;23.90;;;;;;;18.17;70.41;98841.89;215820;1276;142777;-67
2022/09/26 08:51:05;;;;;;;23.80;21.30;;;;;;;18.48;70.07;98839.09;215150;1276;141942;-68
2022/09/26 08:56:19;;;;;;;22.00;19.80;;;;;;;18.66;69.48;98831.54;215895;1276;141820;-69
2022/09/26 09:01:28;;;;;;;23.80;18.90;;;;;;;18.92;69.21;98830.58;214715;1276;141307;-69
2022/09/26 09:06:33;;;;;;;20.90;17.10;;;;;;;19.13;68.46;98826.59;214543;1276;141830;-69
2022/09/26 09:11:49;;;;;;;24.80;19.70;;;;;;;18.99;67.37;98822.44;214922;1276;141128;-66
2022/09/26 09:17:05;;;;;;;;;;;;;;;19.11;67.90;98817.63;214125;1276;139722;-67
2022/09/26 09:22:43;;;;;;;19.60;16.90;;;;;;;19.34;67.78;98819.72;214546;1276;126775;-67
2022/09/26 09:28:14;;;;;;;24.10;21.10;;;;;;;19.62;67.21;98818.82;213109;1275;140001;-68
2022/09/26 09:33:28;;;;;;;20.40;18.20;;;;;;;19.64;66.15;98814.17;214026;1276;140462;-67
2022/09/26 09:38:34;;;;;;;19.90;17.80;;;;;;;19.49;65.84;98816.59;213590;1276;140335;-68
2022/09/26 09:43:48;;;;;;;20.00;18.10;;;;;;;18.99;65.32;98816.38;213156;1276;140563;-70
2022/09/26 09:49:08;;;;;;;25.70;20.80;;;;;;;18.72;65.59;98819.81;213440;1276;139691;-67
2022/09/26 09:54:14;;;;;;;23.90;21.00;;;;;;;18.59;65.80;98821.23;212304;1276;1416185;-68
2022/09/26 09:59:34;;;;;;;17.40;13.60;;;;;;;18.55;66.20;98818.36;213669;1276;140370;-68
2022/09/26 10:05:00;;;;;;;14.30;12.80;;;;;;;18.50;66.04;98814.05;213778;1276;141226;-67
2022/09/26 10:10:10;;;;;;;14.40;12.30;;;;;;;18.45;65.60;98818.37;213509;1276;141837;-66
2022/09/26 10:15:25;;;;;;;12.10;11.00;;;;;;;18.21;65.03;98817.36;213341;1276;143117;-66
2022/09/26 10:20:53;;;;;;;14.70;12.60;;;;;;;18.07;65.30;98821.95;214019;1275;142098;-67
2022/09/26 10:26:01;;;;;;;12.00;10.80;;;;;;;17.91;65.54;98823.19;214141;1276;140761;-66
2022/09/26 10:31:09;;;;;;;11.60;10.50;;;;;;;17.82;65.10;98822.70;213873;1273;141549;-68
2022/09/26 10:36:27;;;;;;;11.10;9.80;;;;;;;17.57;65.22;98822.67;215211;1275;140216;-70
2022/09/26 10:41:39;;;;;;;12.60;10.40;;;;;;;17.45;65.39;98815.61;215740;1275;140160;-70
2022/09/26 10:46:46;;;;;;;27.20;12.00;;;;;;;17.44;65.59;98808.23;214783;1276;141278;-70
2022/09/26 10:51:59;;;;;;;11.80;10.50;;;;;;;17.60;66.18;98804.73;215720;1276;142650;-69
2022/09/26 10:57:08;;;;;;;12.00;10.90;;;;;;;17.78;65.90;98800.36;213605;1276;140031;-67
2022/09/26 11:02:20;;;;;;;11.50;10.30;;;;;;;17.80;65.68;98799.49;215748;1276;139793;-68
2022/09/26 11:07:28;;;;;;;12.10;10.80;;;;;;;17.74;65.39;98800.94;213541;1276;140930;-68
2022/09/26 11:12:40;;;;;;;12.90;11.50;;;;;;;17.60;65.62;98801.27;215138;1275;140913;-71
2022/09/26 11:17:47;;;;;;;8.40;7.60;;;;;;;17.56;65.75;98803.73;214338;1276;141282;-69
2022/09/26 11:23:03;;;;;;;11.30;10.20;;;;;;;17.51;65.57;98798.77;214199;1276;141874;-70
2022/09/26 11:28:14;;;;;;;11.50;10.30;;;;;;;17.63;65.76;98799.56;213249;1277;139784;-67
2022/09/26 11:33:18;;;;;;;11.40;9.30;;;;;;;17.93;65.82;98791.45;213195;1276;140900;-68
2022/09/26 11:38:55;;;;;;;14.90;12.40;;;;;;;18.07;65.20;98789.95;213290;1276;140351;-67
2022/09/26 11:44:19;;;;;;;12.80;11.50;;;;;;;18.13;65.03;98791.70;214083;1275;141016;-66
2022/09/26 11:49:34;;;;;;;13.00;11.70;;;;;;;18.28;65.11;98787.36;213653;1276;141424;-66
2022/09/26 11:54:40;;;;;;;19.20;14.30;;;;;;;18.53;65.08;98778.19;213288;1276;142332;-67
2022/09/26 12:00:02;;;;;;;14.80;13.50;;;;;;;19.10;64.97;98768.77;213329;1276;141009;-68
2022/09/26 12:05:25;;;;;;;16.60;12.10;;;;;;;19.33;64.40;98761.55;214006;1275;140709;-69
2022/09/26 12:10:47;;;;;;;15.80;11.80;;;;;;;19.19;63.99;98755.70;213421;1276;141798;-68
2022/09/26 12:16:01;;;;;;;14.10;11.70;;;;;;;19.02;64.00;98755.27;214865;1276;140562;-69
2022/09/26 12:21:20;;;;;;;14.00;12.80;;;;;;;19.02;64.09;98751.75;214340;1277;142666;-67
2022/09/26 12:26:54;;;;;;;19.50;12.20;;;;;;;18.97;63.89;98748.36;213530;1276;141227;-68
2022/09/26 12:32:13;;;;;;;13.60;12.20;;;;;;;18.86;63.88;98739.05;215134;1276;140713;-69
2022/09/26 12:37:42;;;;;;;12.80;11.50;;;;;;;18.69;63.92;98740.05;215452;1276;140274;-67
2022/09/26 12:42:54;;;;;;;12.50;11.10;;;;;;;18.49;64.21;98743.69;215359;1276;141891;-70
2022/09/26 12:48:15;;;;;;;10.10;9.20;;;;;;;18.40;64.29;98739.13;215709;1276;140402;-70
2022/09/26 12:53:18;;;;;;;12.70;11.40;;;;;;;18.52;64.75;98736.12;215929;1276;140086;-69
2022/09/26 12:58:41;;;;;;;13.60;11.40;;;;;;;18.69;64.57;98728.59;215745;1276;142228;-67
2022/09/26 13:03:52;;;;;;;12.90;11.50;;;;;;;18.79;64.37;98725.98;215632;1276;140287;-68
2022/09/26 13:09:06;;;;;;;23.10;15.60;;;;;;;18.92;64.37;98721.11;213963;1276;140912;-69
2022/09/26 13:14:29;;;;;;;15.80;13.30;;;;;;;18.96;64.05;98718.91;213806;1277;140937;-71
2022/09/26 13:19:37;;;;;;;11.60;10.50;;;;;;;18.92;63.96;98716.24;213158;1276;141778;-69
2022/09/26 13:24:59;;;;;;;10.50;9.50;;;;;;;18.81;64.01;98717.30;213472;1276;142674;-71
2022/09/26 13:30:16;;;;;;;10.00;8.50;;;;;;;18.72;64.00;98711.35;214453;1276;140692;-67
2022/09/26 13:35:27;;;;;;;11.90;10.60;;;;;;;18.59;64.25;98705.45;213754;1276;141817;-68
2022/09/26 13:40:50;;;;;;;11.60;10.30;;;;;;;18.56;64.34;98708.33;213234;1276;141472;-70
2022/09/26 13:45:59;;;;;;;12.40;10.50;;;;;;;18.53;64.46;98707.16;213905;1276;141579;-69
2022/09/26 13:51:17;;;;;;;11.70;10.50;;;;;;;18.53;64.55;98706.78;213315;1276;141884;-68
2022/09/26 13:56:42;;;;;;;24.20;11.20;;;;;;;18.49;64.61;98706.01;213769;1276;140897;-69
2022/09/26 14:02:17;;;;;;;12.20;10.20;;;;;;;18.35;64.53;98703.46;213243;1277;141044;-68
2022/09/26 14:13:38;;;;;;;12.20;11.00;;;;;;;18.01;64.68;98701.61;213401;1276;141971;-66
2022/09/26 14:19:05;;;;;;;10.10;9.10;;;;;;;18.00;65.04;98689.36;213435;1276;142627;-66
2022/09/26 14:24:20;;;;;;;10.10;9.20;;;;;;;17.98;65.32;98679.27;214586;1276;141394;-66
2022/09/26 14:29:48;;;;;;;8.60;7.90;;;;;;;17.99;65.24;98675.69;215878;1276;139773;-67
2022/09/26 14:34:53;;;;;;;14.60;9.80;;;;;;;18.00;65.09;98671.13;215697;1276;142381;-66
2022/09/26 14:40:09;;;;;;;8.90;8.10;;;;;;;18.02;65.02;98666.91;215809;1276;141276;-68
2022/09/26 14:45:16;;;;;;;19.60;12.90;;;;;;;17.91;64.33;98678.58;215770;1276;140961;-68
2022/09/26 14:50:34;;;;;;;29.80;17.00;;;;;;;17.68;64.11;98690.95;215642;1275;141850;-71
2022/09/26 14:55:53;;;;;;;13.30;8.60;;;;;;;17.52;64.24;98696.25;214588;1277;141688;-69
2022/09/26 15:01:03;;;;;;;18.60;14.00;;;;;;;17.27;64.21;98695.38;214648;1276;141108;-68
2022/09/26 15:06:12;;;;;;;79.90;53.30;;;;;;;17.02;64.43;98705.94;214312;1276;141077;-67
2022/09/26 15:11:46;;;;;;;11.40;8.80;;;;;;;16.70;64.90;98713.80;214270;1277;143531;-70
2022/09/26 15:16:54;;;;;;;20.20;15.60;;;;;;;16.37;65.88;98715.06;214300;1276;143425;-66
2022/09/26 15:22:05;;;;;;;12.40;10.50;;;;;;;16.12;66.96;98716.86;213929;1276;142741;-66
2022/09/26 15:27:28;;;;;;;8.60;7.60;;;;;;;15.93;67.55;98713.42;213130;1276;142115;-69
2022/09/26 15:32:32;;;;;;;6.60;6.00;;;;;;;15.72;68.07;98709.18;212990;1277;142730;-69
2022/09/26 15:37:35;;;;;;;5.50;5.00;;;;;;;15.42;68.59;98705.70;213926;1277;141967;-68
2022/09/26 15:48:01;;;;;;;9.80;5.60;;;;;;;14.98;70.11;98695.46;213101;1276;143599;-70
2022/09/26 15:53:06;;;;;;;5.80;5.30;;;;;;;14.91;70.86;98694.02;213626;1276;141510;-67
2022/09/26 15:58:16;;;;;;;6.80;6.10;;;;;;;14.98;71.36;98696.97;212759;1277;142613;-70
2022/09/26 16:03:35;;;;;;;6.60;6.00;;;;;;;14.98;71.69;98696.80;213252;1277;141374;-70
2022/09/26 16:08:40;;;;;;;7.80;7.20;;;;;;;15.03;71.81;98697.70;213535;1277;141033;-68
2022/09/26 16:13:49;;;;;;;8.80;6.00;;;;;;;15.03;72.01;98699.21;213183;1277;141663;-74
2022/09/26 16:18:55;;;;;;;12.10;5.30;;;;;;;15.02;72.20;98694.92;214230;1276;140975;-68
2022/09/26 16:24:00;;;;;;;6.70;4.70;;;;;;;14.93;72.16;98695.22;213853;1276;142106;-68
2022/09/26 16:29:04;;;;;;;4.10;3.80;;;;;;;14.73;71.85;98689.88;213286;1276;141192;-67
2022/09/26 16:34:25;;;;;;;5.80;5.40;;;;;;;14.56;71.97;98689.71;214584;1276;141560;-69
2022/09/26 16:39:29;;;;;;;7.60;5.40;;;;;;;14.33;72.04;98678.23;215898;1276;140287;-70
2022/09/26 16:44:40;;;;;;;6.00;4.80;;;;;;;14.06;71.92;98681.64;215850;1276;139778;-68
2022/09/26 16:49:47;;;;;;;5.00;4.50;;;;;;;13.87;72.45;98680.94;215249;1276;141554;-70
2022/09/26 16:54:50;;;;;;;10.40;5.00;;;;;;;13.76;72.45;98683.83;215599;1276;141900;-69
2022/09/26 17:01:52;;;;;;;5.30;4.80;;;;;;;13.68;72.28;98691.17;215557;1276;141588;-69
2022/09/26 17:05:23;;;;;;;6.00;5.50;;;;;;;13.50;72.14;98690.30;214412;1276;141699;-69
2022/09/26 17:10:31;;;;;;;5.80;5.30;;;;;;;13.26;72.21;98687.57;212983;1276;142812;-67
2022/09/26 17:15:36;;;;;;;7.50;6.00;;;;;;;13.01;72.31;98689.09;214212;1276;142133;-67
2022/09/26 17:20:46;;;;;;;5.70;5.10;;;;;;;12.78;72.74;98686.26;213696;1276;142019;-70
2022/09/26 17:25:51;;;;;;;8.20;6.30;;;;;;;12.62;72.95;98686.36;213058;1276;141391;-67
2022/09/26 17:31:06;;;;;;;8.30;7.00;;;;;;;12.53;73.40;98685.98;213182;1276;140577;-70
2022/09/26 17:36:29;;;;;;;10.20;9.20;;;;;;;12.43;73.23;98692.75;214323;1276;142431;-69
2022/09/26 17:41:36;;;;;;;11.00;7.90;;;;;;;12.29;73.51;98693.36;212927;1276;140915;-68
2022/09/26 17:46:41;;;;;;;7.30;6.60;;;;;;;12.17;73.46;98688.76;213408;1276;141776;-69
2022/09/26 17:51:44;;;;;;;7.20;6.30;;;;;;;12.08;73.40;98694.38;213188;1276;142162;-68
2022/09/26 17:56:50;;;;;;;6.60;5.90;;;;;;;11.97;73.53;98690.64;213121;1276;140927;-69
2022/09/26 18:01:57;;;;;;;6.90;6.00;;;;;;;11.86;73.62;98692.00;213332;1276;141491;-69
2022/09/26 18:07:03;;;;;;;8.60;7.40;;;;;;;11.67;73.61;98694.95;213275;1276;141143;-70
2022/09/26 18:12:12;;;;;;;8.20;7.30;;;;;;;11.53;73.63;98694.48;214702;1276;141361;-68
2022/09/26 18:17:17;;;;;;;8.60;7.50;;;;;;;11.46;74.03;98692.86;214672;1276;139849;-69
2022/09/26 18:22:26;;;;;;;8.20;6.70;;;;;;;11.37;73.82;98693.27;214639;1276;141245;-69
2022/09/26 18:27:30;;;;;;;10.70;8.00;;;;;;;11.20;74.18;98692.56;213723;1276;142562;-69
2022/09/26 18:32:37;;;;;;;11.50;8.00;;;;;;;11.02;74.13;98686.92;213113;1276;141920;-68
2022/09/26 18:37:40;;;;;;;10.40;8.60;;;;;;;10.83;74.18;98682.65;215794;1275;141697;-69
2022/09/26 18:42:44;;;;;;;9.10;7.80;;;;;;;10.81;74.89;98680.61;215890;1276;141461;-69
2022/09/26 18:47:46;;;;;;;11.50;10.10;;;;;;;10.86;75.16;98678.03;215388;1276;141658;-68
2022/09/26 18:52:49;;;;;;;10.40;7.70;;;;;;;10.89;75.38;98671.16;215574;1277;140188;-68
2022/09/26 19:03:14;;;;;;;12.60;10.60;;;;;;;10.91;75.23;98670.73;214832;1275;140827;-68
2022/09/26 19:08:34;;;;;;;19.90;10.40;;;;;;;10.62;74.63;98681.40;214262;1276;141179;-68
2022/09/26 19:13:36;;;;;;;42.80;21.20;;;;;;;10.35;75.00;98688.00;214535;1276;140513;-67
2022/09/26 19:18:44;;;;;;;28.80;17.80;;;;;;;10.29;75.63;98686.73;214154;1276;142005;-68
2022/09/26 19:23:48;;;;;;;29.80;18.20;;;;;;;10.26;75.80;98687.09;212981;1276;141680;-68
2022/09/26 19:28:51;;;;;;;29.50;18.20;;;;;;;10.26;76.23;98688.73;214071;1276;141397;-68
2022/09/26 19:33:57;;;;;;;27.70;17.60;;;;;;;10.35;76.56;98681.23;213645;1276;140603;-67
2022/09/26 19:38:59;;;;;;;29.70;16.80;;;;;;;10.39;76.60;98675.97;213053;1276;140140;-67
2022/09/26 19:44:01;;;;;;;23.50;17.60;;;;;;;10.39;76.54;98678.73;213747;1275;140063;-68
2022/09/26 19:49:05;;;;;;;27.20;20.80;;;;;;;10.39;76.70;98690.77;213231;1276;140543;-67
2022/09/26 19:54:18;;;;;;;26.20;20.20;;;;;;;10.35;76.72;98691.67;213788;1276;141674;-67
2022/09/26 19:59:20;;;;;;;25.40;17.90;;;;;;;10.33;77.01;98686.66;214059;1276;140663;-67
2022/09/26 20:04:29;;;;;;;24.80;18.00;;;;;;;10.36;77.22;98682.46;213733;1276;140799;-66
2022/09/26 20:09:31;;;;;;;27.60;19.10;;;;;;;10.36;77.17;98681.14;213822;1276;140894;-66
2022/09/26 20:14:36;;;;;;;25.10;18.80;;;;;;;10.38;77.60;98677.79;214132;1276;140531;-67
2022/09/26 20:19:44;;;;;;;25.00;18.70;;;;;;;10.41;77.90;98682.90;213689;1276;141325;-66
2022/09/26 20:24:48;;;;;;;24.80;18.10;;;;;;;10.37;77.56;98682.25;213958;1276;141397;-67
2022/09/26 20:35:15;;;;;;;23.80;18.40;;;;;;;10.39;78.24;98675.38;214787;1275;143661;-68
2022/09/26 20:40:21;;;;;;;22.80;16.30;;;;;;;10.43;78.07;98671.98;215632;1275;141091;-68
2022/09/26 20:45:39;;;;;;;27.40;16.70;;;;;;;10.34;77.60;98669.66;214635;1276;140966;-67
2022/09/26 20:50:43;;;;;;;22.10;17.10;;;;;;;10.22;77.71;98664.64;215841;1276;141714;-68
2022/09/26 20:55:47;;;;;;;22.70;15.90;;;;;;;10.20;77.50;98664.35;215710;1275;141430;-67
2022/09/26 21:00:52;;;;;;;19.10;14.80;;;;;;;10.06;77.49;98662.17;213163;1276;143508;-66
2022/09/26 21:05:55;;;;;;;16.90;15.20;;;;;;;10.07;77.83;98651.66;214639;1276;142003;-68
2022/09/26 21:10:58;;;;;;;16.80;14.20;;;;;;;10.06;77.52;98650.25;212941;1277;142134;-67
2022/09/26 21:16:02;;;;;;;17.20;15.40;;;;;;;9.83;77.44;98645.69;214509;1277;143028;-67
2022/09/26 21:21:07;;;;;;;20.20;15.20;;;;;;;9.74;77.71;98643.02;214425;1276;142170;-67
2022/09/26 21:26:19;;;;;;;19.60;17.50;;;;;;;9.78;77.91;98648.69;213559;1276;165446;-67
2022/09/26 21:31:35;;;;;;;18.80;16.20;;;;;;;9.73;78.00;98647.07;214249;1276;144210;-68
2022/09/26 21:36:40;;;;;;;20.60;16.40;;;;;;;9.72;78.07;98646.11;213245;1274;141422;-67
2022/09/26 21:41:49;;;;;;;20.70;16.30;;;;;;;9.69;78.12;98644.38;213130;1276;142533;-67
2022/09/26 21:46:52;;;;;;;21.10;15.40;;;;;;;9.63;78.09;98645.13;213322;1275;145780;-65
2022/09/26 21:52:06;;;;;;;24.60;15.50;;;;;;;9.59;78.04;98645.79;213315;1276;141390;-67
2022/09/26 21:57:14;;;;;;;22.60;16.30;;;;;;;9.48;77.84;98637.71;212405;1275;822425;-66
2022/09/26 22:02:19;;;;;;;22.60;16.00;;;;;;;9.35;77.68;98631.34;213077;1276;140488;-67
2022/09/26 22:07:23;;;;;;;18.40;14.90;;;;;;;9.24;77.73;98626.55;213153;1276;141468;-66
2022/09/26 22:12:27;;;;;;;16.90;15.00;;;;;;;9.03;77.41;98628.34;214175;1276;164031;-67
2022/09/26 22:17:34;;;;;;;17.70;14.20;;;;;;;8.84;77.43;98627.98;214837;1275;144665;-67
2022/09/26 22:22:37;;;;;;;15.40;13.10;;;;;;;8.72;77.45;98629.40;214782;1276;140909;-67
2022/09/26 22:27:40;;;;;;;17.60;15.50;;;;;;;8.70;78.03;98621.73;214402;1273;141991;-68
2022/09/26 22:32:43;;;;;;;15.60;13.20;;;;;;;8.68;77.92;98618.03;213387;1275;140584;-67
2022/09/26 22:37:47;;;;;;;20.80;17.00;;;;;;;8.59;77.43;98618.36;213297;1275;139740;-67
2022/09/26 22:42:51;;;;;;;19.70;15.80;;;;;;;8.47;77.70;98613.66;215752;1276;140312;-69
2022/09/26 22:47:55;;;;;;;19.90;16.70;;;;;;;8.35;77.61;98601.36;215198;1276;140891;-67
2022/09/26 22:52:58;;;;;;;18.10;15.20;;;;;;;8.29;77.70;98600.79;215601;1275;140702;-68
2022/09/26 22:58:00;;;;;;;19.90;16.20;;;;;;;8.15;77.58;98597.05;215258;1276;140060;-68
2022/09/26 23:03:04;;;;;;;16.80;14.80;;;;;;;7.98;77.66;98594.17;213816;1276;140015;-66
2022/09/26 23:08:08;;;;;;;15.60;13.80;;;;;;;7.87;77.61;98584.48;214846;1276;141278;-66
2022/09/26 23:13:11;;;;;;;23.20;15.10;;;;;;;7.86;78.15;98583.31;213613;1275;141488;-66
2022/09/26 23:18:14;;;;;;;20.60;17.90;;;;;;;7.92;78.25;98576.70;213435;1276;140078;-67
2022/09/26 23:23:17;;;;;;;29.90;17.20;;;;;;;7.85;78.40;98574.58;213279;1274;141879;-66
2022/09/26 23:28:20;;;;;;;17.30;14.70;;;;;;;7.81;78.89;98573.58;213652;1276;140571;-66
2022/09/26 23:33:23;;;;;;;18.20;15.50;;;;;;;7.85;79.07;98567.27;213177;1276;140866;-66
2022/09/26 23:38:44;;;;;;;18.70;15.30;;;;;;;7.87;79.52;98561.14;212856;1276;140495;-68
2022/09/26 23:44:09;;;;;;;18.30;15.60;;;;;;;7.94;79.70;98560.01;213701;1276;141010;-66
2022/09/26 23:49:33;;;;;;;21.80;18.50;;;;;;;8.07;80.26;98556.67;212878;1276;141160;-67